Strona główna
METAR-TAF:

METAR-TAF

Lotnisko :

Clearfield-Lawrence Airport

Clearfield, Pensylwania, Stany Zjednoczone

Szerokość geograficzna: 41-02-48N, Długość geograficzna: 078-24-42W, wysokość: 462 m

Aktualna obserwacja pogody

Raport powstał 28 minut temu, godzina 12:54 UTC
Wiatr 10 kt od południowy zachód
Temperatura 22°C
Wilgotność 60%
Ciśnienie 1007 hPa
Widzialność: 16.1 km
Przerywane chmury na wysokości 10000 ft

METAR: KFIG 031254Z AUTO 23010KT 10SM BKN100 22/14 A2975 RMK AO2 LTG DSNT NW SLP063 T02170139

czas: 09:22 (13:22 UTC)


TAF: brakujący

Obserwacja i prognoza pogody dla ponad 4000 lotnisk (raport METAR i TAF).

Dostępne stacje oznaczono żółtymi i czerwonymi punktami na mapie.

Najedź kursorem aby zobaczyć nazwę stacji.

Kliknij aby zobaczyć obserwacje i prognozy pogody.

Aby zmienić mapę: kliknij na zielony przycisk z czarnym krzyżykiem, aby powiększyć; na zielony przycisk z myślnikiem, aby pomniejszyć; na zielone strzałki, aby przejść do map sąsiednich.


METAR-TAF: